createdAt,value
2022-09-16T00:00:35.341Z,15.16
2022-09-16T00:03:03.137Z,15.21
2022-09-16T00:05:31.402Z,15.16
2022-09-16T00:07:58.988Z,15.19
2022-09-16T00:10:28.226Z,14.96
2022-09-16T00:12:56.018Z,14.92
2022-09-16T00:15:23.553Z,14.75
2022-09-16T00:17:51.147Z,14.73
2022-09-16T00:20:18.742Z,14.77
2022-09-16T00:22:46.314Z,14.78
2022-09-16T00:25:13.883Z,14.68
2022-09-16T00:27:42.753Z,14.58
2022-09-16T00:30:11.376Z,14.59
2022-09-16T00:32:38.986Z,14.59
2022-09-16T00:35:07.719Z,14.57
2022-09-16T00:37:35.991Z,14.50
2022-09-16T00:40:04.296Z,14.35
2022-09-16T00:42:31.926Z,14.46
2022-09-16T00:45:03.349Z,14.23
2022-09-16T00:47:35.350Z,14.26
2022-09-16T00:50:08.154Z,14.18
2022-09-16T00:52:36.887Z,14.17
2022-09-16T00:55:09.351Z,14.14
2022-09-16T00:57:37.818Z,14.09
2022-09-16T01:00:09.077Z,13.98
2022-09-16T01:02:36.622Z,13.90
2022-09-16T01:05:11.236Z,14.05
2022-09-16T01:07:43.310Z,14.17
2022-09-16T01:10:12.702Z,14.14
2022-09-16T01:12:42.620Z,14.11
2022-09-16T01:15:13.823Z,14.13
2022-09-16T01:18:02.350Z,13.96
2022-09-16T01:21:00.994Z,13.92
2022-09-16T01:23:58.495Z,13.99
2022-09-16T01:27:07.442Z,14.04
2022-09-16T01:29:50.256Z,14.06
2022-09-16T01:32:25.611Z,13.99
2022-09-16T01:35:02.661Z,14.00
2022-09-16T01:37:40.400Z,14.11
2022-09-16T01:40:17.481Z,14.08
2022-09-16T01:42:58.577Z,13.99
2022-09-16T01:45:35.876Z,14.00
2022-09-16T01:48:13.117Z,14.08
2022-09-16T01:50:46.728Z,14.08
2022-09-16T01:53:18.886Z,13.80
2022-09-16T01:55:51.642Z,13.85
2022-09-16T01:58:24.522Z,13.85
2022-09-16T02:00:57.138Z,13.97
2022-09-16T02:03:31.648Z,13.92
2022-09-16T02:06:03.014Z,13.93
2022-09-16T02:08:37.507Z,14.00
2022-09-16T02:11:09.153Z,14.06
2022-09-16T02:13:40.825Z,14.15
2022-09-16T02:16:13.032Z,14.16
2022-09-16T02:18:46.092Z,14.18
2022-09-16T02:21:16.964Z,14.16
2022-09-16T02:23:47.613Z,14.21
2022-09-16T02:26:19.498Z,14.25
2022-09-16T02:28:50.442Z,14.34
2022-09-16T02:31:21.709Z,14.30
2022-09-16T02:33:55.115Z,14.17
2022-09-16T02:36:24.730Z,14.21
2022-09-16T02:38:55.330Z,14.17
2022-09-16T02:41:24.196Z,14.21
2022-09-16T02:43:51.958Z,14.31
2022-09-16T02:46:27.140Z,14.26
2022-09-16T02:49:03.501Z,14.29
2022-09-16T02:51:39.664Z,14.40
2022-09-16T02:54:12.782Z,14.15
2022-09-16T02:56:42.878Z,14.29
2022-09-16T02:59:14.133Z,14.33
2022-09-16T03:01:44.529Z,14.29
2022-09-16T03:04:15.985Z,14.37
2022-09-16T03:06:43.982Z,14.39
2022-09-16T03:09:15.021Z,14.38
2022-09-16T03:11:58.007Z,14.47
2022-09-16T03:15:05.105Z,14.42
2022-09-16T03:17:52.938Z,14.51
2022-09-16T03:20:30.988Z,14.39
2022-09-16T03:23:10.892Z,14.34
2022-09-16T03:25:47.593Z,14.34
2022-09-16T03:28:19.202Z,14.33
2022-09-16T03:30:52.986Z,14.37
2022-09-16T03:33:26.865Z,14.34
2022-09-16T03:35:59.644Z,14.37
2022-09-16T03:38:28.404Z,14.35
2022-09-16T03:40:56.178Z,14.30
2022-09-16T03:43:23.784Z,14.37
2022-09-16T03:45:52.674Z,14.20
2022-09-16T03:48:20.269Z,14.21
2022-09-16T03:50:47.834Z,14.13
2022-09-16T03:53:16.727Z,14.26
2022-09-16T03:55:44.291Z,14.28
2022-09-16T03:58:11.999Z,14.24
2022-09-16T04:00:39.574Z,14.14
2022-09-16T04:03:07.248Z,14.10
2022-09-16T04:05:34.799Z,14.04
2022-09-16T04:08:02.532Z,13.97
2022-09-16T04:10:31.417Z,13.99
2022-09-16T04:12:59.581Z,14.00
2022-09-16T04:15:27.474Z,13.98
2022-09-16T04:17:56.132Z,13.94
2022-09-16T04:20:23.864Z,13.93
2022-09-16T04:22:51.399Z,13.88
2022-09-16T04:25:18.929Z,13.90
2022-09-16T04:27:47.859Z,13.88
2022-09-16T04:30:15.604Z,13.85
2022-09-16T04:32:43.123Z,13.88
2022-09-16T04:35:10.717Z,13.93
2022-09-16T04:37:38.321Z,13.87
2022-09-16T04:40:06.678Z,13.87
2022-09-16T04:42:34.266Z,13.92
2022-09-16T04:45:03.247Z,13.83
2022-09-16T04:47:30.954Z,13.85
2022-09-16T04:49:58.532Z,13.77
2022-09-16T04:52:26.127Z,13.72
2022-09-16T04:54:53.682Z,13.77
2022-09-16T04:57:21.262Z,13.77
2022-09-16T04:59:48.820Z,13.75
2022-09-16T05:02:17.794Z,13.78
2022-09-16T05:04:45.319Z,13.76
2022-09-16T05:07:12.854Z,13.81
2022-09-16T05:09:41.132Z,13.75
2022-09-16T05:12:09.339Z,13.72
2022-09-16T05:14:36.886Z,13.72
2022-09-16T05:17:04.478Z,13.71
2022-09-16T05:19:33.370Z,13.72
2022-09-16T05:22:02.837Z,13.72
2022-09-16T05:24:30.547Z,13.77
2022-09-16T05:26:58.111Z,13.77
2022-09-16T05:29:25.646Z,13.77
2022-09-16T05:31:53.244Z,13.82
2022-09-16T05:34:23.241Z,13.89
2022-09-16T05:36:53.904Z,13.74
2022-09-16T05:39:24.251Z,13.73
2022-09-16T05:41:55.385Z,13.76
2022-09-16T05:44:23.074Z,13.78
2022-09-16T05:46:50.852Z,13.67
2022-09-16T05:49:20.666Z,13.75
2022-09-16T05:51:48.909Z,13.76
2022-09-16T05:54:19.199Z,13.79
2022-09-16T05:56:47.505Z,13.79
2022-09-16T05:59:16.339Z,13.63
2022-09-16T06:01:44.122Z,13.73
2022-09-16T06:04:16.547Z,13.78
2022-09-16T06:06:46.023Z,13.94
2022-09-16T06:09:16.324Z,13.95
2022-09-16T06:11:47.290Z,13.96
2022-09-16T06:14:16.165Z,14.07
2022-09-16T06:16:44.642Z,14.08
2022-09-16T06:19:14.799Z,14.11
2022-09-16T06:21:43.601Z,14.09
2022-09-16T06:24:12.114Z,14.02
2022-09-16T06:26:41.661Z,13.95
2022-09-16T06:29:11.780Z,14.07
2022-09-16T06:31:39.826Z,14.16
2022-09-16T06:34:09.341Z,14.22
2022-09-16T06:36:42.776Z,14.20
2022-09-16T06:39:13.375Z,14.24
2022-09-16T06:41:41.101Z,14.24
2022-09-16T06:44:10.129Z,14.28
2022-09-16T06:46:37.873Z,14.36
2022-09-16T06:49:06.721Z,14.43
2022-09-16T06:51:35.349Z,14.50
2022-09-16T06:54:04.756Z,14.51
2022-09-16T06:56:34.030Z,14.46
2022-09-16T06:59:01.652Z,14.57
2022-09-16T07:01:32.053Z,14.64
2022-09-16T07:04:02.800Z,14.70
2022-09-16T07:07:07.725Z,14.66
2022-09-16T07:09:18.912Z,14.73
2022-09-16T07:11:46.469Z,14.82
2022-09-16T07:14:14.028Z,15.12
2022-09-16T07:16:42.980Z,15.13
2022-09-16T07:19:10.887Z,15.34
2022-09-16T07:21:38.448Z,15.06
2022-09-16T07:24:06.354Z,15.22
2022-09-16T07:26:37.583Z,15.28
2022-09-16T07:29:07.747Z,15.41
2022-09-16T07:31:36.962Z,15.50
2022-09-16T07:34:07.885Z,15.57
2022-09-16T07:36:37.494Z,15.72
2022-09-16T07:39:06.430Z,15.72
2022-09-16T07:41:35.538Z,15.63
2022-09-16T07:44:03.879Z,15.79
2022-09-16T07:46:33.467Z,16.03
2022-09-16T07:49:02.420Z,16.05
2022-09-16T07:51:32.367Z,16.09
2022-09-16T07:54:02.216Z,15.91
2022-09-16T07:56:31.625Z,16.00
2022-09-16T07:58:59.459Z,15.90
2022-09-16T08:01:27.535Z,16.13
2022-09-16T08:03:56.795Z,16.46
2022-09-16T08:06:26.762Z,16.52
2022-09-16T08:09:02.522Z,16.45
2022-09-16T08:11:37.958Z,16.69
2022-09-16T08:14:05.533Z,16.85
2022-09-16T08:16:33.083Z,16.95
2022-09-16T08:19:00.750Z,17.08
2022-09-16T08:21:29.689Z,16.95
2022-09-16T08:23:59.119Z,16.61
2022-09-16T08:26:27.699Z,16.73
2022-09-16T08:29:08.274Z,17.13
2022-09-16T08:31:37.585Z,16.82
2022-09-16T08:34:05.289Z,16.51
2022-09-16T08:36:33.700Z,16.52
2022-09-16T08:39:02.764Z,16.47
2022-09-16T08:41:42.587Z,16.35
2022-09-16T08:44:19.246Z,16.29
2022-09-16T08:46:53.625Z,16.27
2022-09-16T08:49:31.466Z,16.18
2022-09-16T08:52:01.126Z,16.17
2022-09-16T08:54:34.462Z,16.25
2022-09-16T08:57:04.247Z,16.29
2022-09-16T08:59:38.042Z,16.02
2022-09-16T09:02:26.711Z,16.19
2022-09-16T09:04:54.626Z,16.36
2022-09-16T09:07:31.647Z,16.44
2022-09-16T09:10:10.868Z,16.67
2022-09-16T09:12:42.653Z,16.48
2022-09-16T09:15:35.086Z,16.53
2022-09-16T09:18:22.734Z,16.87
2022-09-16T09:20:57.915Z,16.80
2022-09-16T09:23:40.150Z,16.88
2022-09-16T09:26:15.979Z,16.86
2022-09-16T09:29:24.407Z,16.95
2022-09-16T09:31:58.683Z,16.81
2022-09-16T09:34:44.481Z,16.87
2022-09-16T09:37:30.345Z,16.97
2022-09-16T09:40:08.605Z,17.03
2022-09-16T09:42:42.638Z,17.22
2022-09-16T09:45:19.610Z,17.05
2022-09-16T09:47:50.689Z,17.18
2022-09-16T09:50:23.692Z,17.69
2022-09-16T09:52:58.779Z,18.48
2022-09-16T09:55:29.083Z,18.69
2022-09-16T09:58:06.937Z,19.35
2022-09-16T10:00:34.674Z,20.31
2022-09-16T10:03:06.638Z,20.05
2022-09-16T10:05:35.150Z,20.26
2022-09-16T10:08:06.374Z,20.80
2022-09-16T10:10:35.893Z,21.59
2022-09-16T10:13:13.108Z,22.22
2022-09-16T10:15:41.501Z,21.63
2022-09-16T10:18:14.306Z,20.53
2022-09-16T10:20:45.114Z,19.74
2022-09-16T10:23:16.758Z,19.77
2022-09-16T10:25:44.680Z,19.53
2022-09-16T10:28:22.505Z,19.08
2022-09-16T10:30:53.422Z,19.13
2022-09-16T10:33:25.750Z,19.32
2022-09-16T10:35:57.941Z,19.24
2022-09-16T10:38:35.581Z,19.20
2022-09-16T10:41:09.366Z,18.54
2022-09-16T10:43:40.294Z,18.77
2022-09-16T10:46:08.903Z,18.45
2022-09-16T10:48:37.683Z,18.39
2022-09-16T10:51:07.195Z,18.75
2022-09-16T10:53:39.356Z,19.05
2022-09-16T10:56:19.070Z,19.55
2022-09-16T10:58:47.994Z,20.36
2022-09-16T11:01:30.832Z,22.06
2022-09-16T11:04:55.963Z,20.97
2022-09-16T11:07:37.706Z,19.87
2022-09-16T11:10:16.802Z,20.11
2022-09-16T11:13:06.038Z,19.54
2022-09-16T11:15:51.012Z,19.73
2022-09-16T11:18:32.761Z,19.30
2022-09-16T11:21:12.103Z,19.00
2022-09-16T11:23:57.515Z,19.87
2022-09-16T11:26:31.568Z,19.46
2022-09-16T11:29:28.020Z,19.09
2022-09-16T11:32:06.585Z,18.46
2022-09-16T11:34:49.789Z,18.24
2022-09-16T11:37:26.875Z,18.26
2022-09-16T11:40:16.355Z,18.10
2022-09-16T11:42:51.751Z,17.80
2022-09-16T11:45:32.097Z,17.21
2022-09-16T11:48:24.534Z,17.10
2022-09-16T11:51:03.186Z,16.86
2022-09-16T11:53:49.249Z,17.10
2022-09-16T11:56:21.545Z,17.23
2022-09-16T11:58:53.998Z,17.57
2022-09-16T12:01:36.164Z,18.45
2022-09-16T12:04:12.278Z,19.64
2022-09-16T12:06:46.725Z,20.50
2022-09-16T12:09:20.279Z,20.11
2022-09-16T12:11:52.062Z,20.16
2022-09-16T12:14:23.802Z,20.17
2022-09-16T12:16:56.569Z,20.50
2022-09-16T12:19:30.383Z,20.71
2022-09-16T12:22:05.209Z,20.23
2022-09-16T12:24:40.725Z,19.81
2022-09-16T12:27:16.038Z,19.94
2022-09-16T12:29:52.068Z,19.38
2022-09-16T12:32:23.892Z,19.07
2022-09-16T12:34:59.228Z,19.48
2022-09-16T12:37:36.108Z,19.73
2022-09-16T12:40:05.709Z,19.52
2022-09-16T12:43:13.773Z,19.94
2022-09-16T12:46:04.849Z,20.14
2022-09-16T12:49:01.113Z,20.46
2022-09-16T12:51:50.763Z,20.72
2022-09-16T12:54:51.334Z,21.20
2022-09-16T12:57:39.240Z,21.76
2022-09-16T13:00:15.397Z,21.69
2022-09-16T13:02:48.040Z,21.47
2022-09-16T13:05:22.190Z,21.76
2022-09-16T13:07:54.646Z,21.53
2022-09-16T13:10:46.719Z,20.73
2022-09-16T13:13:21.967Z,19.84
2022-09-16T13:15:57.635Z,20.06
2022-09-16T13:18:38.479Z,20.13
2022-09-16T13:21:13.726Z,19.60
2022-09-16T13:23:46.442Z,19.58
2022-09-16T13:26:15.065Z,19.46
2022-09-16T13:28:44.509Z,19.33
2022-09-16T13:31:21.021Z,19.12
2022-09-16T13:33:50.753Z,18.64
2022-09-16T13:36:32.979Z,18.11
2022-09-16T13:39:04.375Z,18.15
2022-09-16T13:41:35.485Z,18.15
2022-09-16T13:44:04.930Z,18.55
2022-09-16T13:46:38.183Z,18.26
2022-09-16T13:49:25.496Z,17.96
2022-09-16T13:51:53.821Z,18.06
2022-09-16T13:54:28.789Z,17.44
2022-09-16T13:57:12.632Z,17.47
2022-09-16T14:02:36.224Z,16.50
2022-09-16T14:05:18.332Z,16.31
2022-09-16T14:07:52.304Z,16.26
2022-09-16T14:10:29.683Z,16.06
2022-09-16T14:13:07.332Z,15.96
2022-09-16T14:15:38.188Z,15.76
2022-09-16T14:18:07.305Z,16.15
2022-09-16T14:20:35.284Z,15.73
2022-09-16T14:23:04.995Z,15.76
2022-09-16T14:25:36.394Z,15.44
2022-09-16T14:28:21.321Z,15.84
2022-09-16T14:30:51.234Z,15.65
2022-09-16T14:33:22.805Z,16.13
2022-09-16T14:35:53.610Z,16.29
2022-09-16T14:38:44.215Z,16.22
2022-09-16T14:41:22.867Z,16.36
2022-09-16T14:43:51.619Z,16.14
2022-09-16T14:46:19.664Z,16.19
2022-09-16T14:48:47.732Z,16.14
2022-09-16T14:51:22.560Z,16.06
2022-09-16T14:54:12.123Z,16.12
2022-09-16T14:56:41.532Z,15.99
2022-09-16T14:59:12.450Z,16.11
2022-09-16T15:01:41.267Z,16.22
2022-09-16T15:04:12.238Z,16.28
2022-09-16T15:06:45.318Z,16.19
2022-09-16T15:09:20.642Z,16.42
2022-09-16T15:11:52.561Z,16.22
2022-09-16T15:14:20.731Z,16.31
2022-09-16T15:16:51.986Z,15.65
2022-09-16T15:19:22.883Z,15.76
2022-09-16T15:21:51.293Z,15.76
2022-09-16T15:24:22.993Z,15.69
2022-09-16T15:26:53.843Z,15.48
2022-09-16T15:29:31.989Z,15.59
2022-09-16T15:32:18.067Z,15.46
2022-09-16T15:34:46.569Z,15.22
2022-09-16T15:37:32.131Z,15.31
2022-09-16T15:40:11.508Z,15.29
2022-09-16T15:42:40.758Z,15.40
2022-09-16T15:45:19.715Z,15.50
2022-09-16T15:47:57.979Z,15.69
2022-09-16T15:50:28.943Z,15.95
2022-09-16T15:53:02.547Z,15.74
2022-09-16T15:55:35.475Z,15.94
2022-09-16T15:58:11.948Z,15.85
2022-09-16T16:01:00.548Z,16.16
2022-09-16T16:03:31.950Z,16.05
2022-09-16T16:06:00.498Z,16.07
2022-09-16T16:08:45.987Z,15.94
2022-09-16T16:11:15.190Z,15.82
2022-09-16T16:13:44.274Z,15.81
2022-09-16T16:16:14.289Z,15.70
2022-09-16T16:18:43.331Z,15.51
2022-09-16T16:21:12.635Z,15.23
2022-09-16T16:23:40.334Z,15.12
2022-09-16T16:26:10.388Z,15.06
2022-09-16T16:28:38.953Z,14.90
2022-09-16T16:31:15.964Z,14.61
2022-09-16T16:33:45.607Z,14.28
2022-09-16T16:36:14.814Z,14.11
2022-09-16T16:38:42.835Z,14.13
2022-09-16T16:41:12.068Z,13.98
2022-09-16T16:43:39.855Z,14.00
2022-09-16T16:46:07.627Z,14.09
2022-09-16T16:48:37.249Z,14.12
2022-09-16T16:51:07.702Z,13.90
2022-09-16T16:53:35.932Z,13.86
2022-09-16T16:56:05.572Z,13.77
2022-09-16T16:58:35.925Z,13.71
2022-09-16T17:01:10.322Z,13.73
2022-09-16T17:03:39.923Z,13.62
2022-09-16T17:06:08.042Z,13.62
2022-09-16T17:08:36.414Z,13.42
2022-09-16T17:11:10.077Z,13.33
2022-09-16T17:13:38.198Z,13.37
2022-09-16T17:16:06.834Z,13.31
2022-09-16T17:18:35.165Z,13.30
2022-09-16T17:21:06.310Z,13.13
2022-09-16T17:23:34.122Z,13.12
2022-09-16T17:26:02.321Z,12.92
2022-09-16T17:28:30.452Z,12.65
2022-09-16T17:30:58.166Z,12.87
2022-09-16T17:33:26.247Z,12.77
2022-09-16T17:36:01.628Z,12.80
2022-09-16T17:38:30.727Z,12.76
2022-09-16T17:41:05.809Z,12.93
2022-09-16T17:43:34.111Z,12.88
2022-09-16T17:46:03.146Z,12.92
2022-09-16T17:48:31.751Z,12.85
2022-09-16T17:51:00.014Z,12.79
2022-09-16T17:53:27.761Z,12.66
2022-09-16T17:56:05.077Z,12.53
2022-09-16T17:58:33.306Z,12.44
2022-09-16T18:01:11.883Z,12.32
2022-09-16T18:03:41.006Z,12.27
2022-09-16T18:06:11.502Z,12.26
2022-09-16T18:08:39.985Z,12.35
2022-09-16T18:11:10.421Z,12.34
2022-09-16T18:13:38.959Z,12.35
2022-09-16T18:16:09.263Z,12.33
2022-09-16T18:18:38.733Z,12.14
2022-09-16T18:21:07.986Z,11.99
2022-09-16T18:23:36.026Z,12.01
2022-09-16T18:26:08.590Z,11.98
2022-09-16T18:28:58.019Z,12.12
2022-09-16T18:31:26.442Z,12.08
2022-09-16T18:33:54.914Z,12.17
2022-09-16T18:36:25.247Z,12.15
2022-09-16T18:38:54.122Z,12.20
2022-09-16T18:41:23.970Z,12.22
2022-09-16T18:43:56.793Z,12.33
2022-09-16T18:46:27.379Z,12.34
2022-09-16T18:48:55.737Z,12.39
2022-09-16T18:51:24.916Z,12.42
2022-09-16T18:53:54.376Z,12.37
2022-09-16T18:56:23.941Z,12.55
2022-09-16T18:59:17.120Z,12.48
2022-09-16T19:01:42.816Z,12.38
2022-09-16T19:04:12.469Z,12.30
2022-09-16T19:06:41.987Z,12.33
2022-09-16T19:09:13.128Z,12.26
2022-09-16T19:11:40.983Z,12.31
2022-09-16T19:14:11.369Z,12.39
2022-09-16T19:16:40.428Z,12.31
2022-09-16T19:19:11.340Z,12.22
2022-09-16T19:21:39.310Z,12.25
2022-09-16T19:24:10.657Z,12.39
2022-09-16T19:26:38.989Z,12.36
2022-09-16T19:29:07.730Z,12.34
2022-09-16T19:31:37.280Z,12.19
2022-09-16T19:34:05.978Z,12.38
2022-09-16T19:36:36.395Z,12.48
2022-09-16T19:39:05.362Z,12.44
2022-09-16T19:41:35.789Z,12.47
2022-09-16T19:44:05.478Z,12.49
2022-09-16T19:46:36.884Z,12.30
2022-09-16T19:49:05.490Z,12.29
2022-09-16T19:51:34.691Z,12.27
2022-09-16T19:54:03.202Z,12.19
2022-09-16T19:56:33.929Z,12.00
2022-09-16T19:59:02.540Z,11.82
2022-09-16T20:01:32.017Z,11.73
2022-09-16T20:04:00.483Z,11.65
2022-09-16T20:06:30.731Z,11.55
2022-09-16T20:09:01.757Z,11.54
2022-09-16T20:11:32.257Z,11.54
2022-09-16T20:14:01.867Z,11.52
2022-09-16T20:16:32.062Z,11.53
2022-09-16T20:18:59.682Z,11.39
2022-09-16T20:21:29.628Z,11.47
2022-09-16T20:23:58.996Z,11.39
2022-09-16T20:26:26.573Z,11.37
2022-09-16T20:28:56.103Z,11.37
2022-09-16T20:31:25.865Z,11.27
2022-09-16T20:33:54.259Z,11.29
2022-09-16T20:36:22.715Z,11.28
2022-09-16T20:38:50.845Z,11.03
2022-09-16T20:41:22.162Z,11.20
2022-09-16T20:43:50.556Z,11.27
2022-09-16T20:46:20.514Z,10.96
2022-09-16T20:48:48.759Z,10.98
2022-09-16T20:51:18.461Z,10.94
2022-09-16T20:53:51.626Z,10.90
2022-09-16T20:56:21.268Z,10.96
2022-09-16T20:58:49.176Z,10.98
2022-09-16T21:01:18.432Z,11.04
2022-09-16T21:03:46.411Z,10.97
2022-09-16T21:06:15.698Z,10.98
2022-09-16T21:08:44.165Z,10.92
2022-09-16T21:11:13.609Z,10.86
2022-09-16T21:13:44.201Z,10.79
2022-09-16T21:16:13.887Z,10.75
2022-09-16T21:18:42.804Z,10.82
2022-09-16T21:21:14.177Z,10.82
2022-09-16T21:23:42.279Z,10.79
2022-09-16T21:26:13.239Z,10.68
2022-09-16T21:28:43.536Z,10.57
2022-09-16T21:31:14.982Z,10.57
2022-09-16T21:33:44.738Z,10.59
2022-09-16T21:36:14.710Z,10.61
2022-09-16T21:38:42.545Z,10.56
2022-09-16T21:41:12.934Z,10.61
2022-09-16T21:43:44.042Z,10.63
2022-09-16T21:46:13.020Z,10.54
2022-09-16T21:48:42.433Z,10.49
2022-09-16T21:51:12.574Z,10.38
2022-09-16T21:53:42.584Z,10.37
2022-09-16T21:56:12.740Z,10.29
2022-09-16T21:58:42.074Z,10.27
2022-09-16T22:01:11.800Z,10.14
2022-09-16T22:03:40.014Z,10.06
2022-09-16T22:06:09.341Z,10.04
2022-09-16T22:08:37.215Z,10.07
2022-09-16T22:11:06.180Z,9.97
2022-09-16T22:13:35.026Z,9.91
2022-09-16T22:16:05.075Z,10.01
2022-09-16T22:18:34.525Z,9.99
2022-09-16T22:21:03.500Z,9.99
2022-09-16T22:23:31.098Z,9.99
2022-09-16T22:25:58.630Z,10.00
2022-09-16T22:28:26.258Z,9.97
2022-09-16T22:30:54.112Z,10.00
2022-09-16T22:33:23.271Z,9.92
2022-09-16T22:35:51.646Z,9.95
2022-09-16T22:38:19.181Z,9.94
2022-09-16T22:40:46.727Z,10.01
2022-09-16T22:43:14.271Z,9.88
2022-09-16T22:45:41.834Z,9.83
2022-09-16T22:48:09.669Z,9.94
2022-09-16T22:50:38.559Z,9.99
2022-09-16T22:53:06.137Z,9.93
2022-09-16T22:55:33.674Z,9.82
2022-09-16T22:58:01.199Z,9.85
2022-09-16T23:00:28.790Z,9.85
2022-09-16T23:02:56.334Z,9.85
2022-09-16T23:05:23.893Z,9.81
2022-09-16T23:07:52.790Z,9.82
2022-09-16T23:10:20.346Z,9.87
2022-09-16T23:12:47.963Z,9.82
2022-09-16T23:15:16.133Z,9.81
2022-09-16T23:17:43.653Z,9.79
2022-09-16T23:20:11.254Z,9.74
2022-09-16T23:22:40.558Z,9.74
2022-09-16T23:25:10.125Z,9.72
2022-09-16T23:27:39.162Z,9.73
2022-09-16T23:30:08.359Z,9.78
2022-09-16T23:32:35.898Z,9.78
2022-09-16T23:35:03.660Z,9.77
2022-09-16T23:37:31.169Z,9.69
2022-09-16T23:40:00.226Z,9.67
2022-09-16T23:42:29.296Z,9.64
2022-09-16T23:44:56.823Z,9.62
2022-09-16T23:47:24.468Z,9.68
2022-09-16T23:49:53.129Z,9.69
2022-09-16T23:52:20.853Z,9.68
2022-09-16T23:54:48.410Z,9.68
2022-09-16T23:57:15.950Z,9.70
2022-09-16T23:59:44.822Z,9.69
